Time;durP1;ratioP1;P1;durP2;ratioP2;P2;SDS_P1;SDS_P2;PMS_P1;PMS_P2;Temp;Humidity;BMP_temperature;BMP_pressure;BME280_temperature;BME280_humidity;BME280_pressure;Samples;Min_cycle;Max_cycle;Signal;HPM_P1;HPM_P2
2021/09/18 00:01:40;;;;;;;4.05;0.73;;;14.90;99.90;;;13.74;100.00;100595.81;4966691;28;20040;-79
2021/09/18 00:04:08;;;;;;;3.25;0.80;;;15.00;99.90;;;13.81;100.00;100561.03;4929783;28;20023;-79
2021/09/18 00:06:34;;;;;;;2.08;0.70;;;15.20;99.90;;;13.95;100.00;100538.03;4950616;28;20070;-79
2021/09/18 00:09:04;;;;;;;2.17;0.95;;;15.20;99.90;;;13.95;100.00;100498.34;4940727;28;20434;-79
2021/09/18 00:11:31;;;;;;;4.00;1.08;;;15.30;99.90;;;13.93;100.00;100481.72;4909378;28;20045;-81
2021/09/18 00:13:57;;;;;;;2.63;0.70;;;15.20;99.90;;;13.97;100.00;100529.97;4925847;28;20475;-83
2021/09/18 00:16:24;;;;;;;2.60;0.82;;;15.20;99.90;;;13.94;100.00;100515.16;4896819;28;20174;-83
2021/09/18 00:18:53;;;;;;;4.13;0.70;;;15.20;99.90;;;13.95;100.00;100495.69;4922445;28;20029;-82
2021/09/18 00:21:28;;;;;;;2.03;0.70;;;15.30;99.90;;;13.93;100.00;100489.66;4940475;28;20117;-83
2021/09/18 00:24:00;;;;;;;0.60;0.32;;;15.20;99.90;;;13.92;100.00;100485.28;4901437;28;20446;-83
2021/09/18 00:26:32;;;;;;;3.33;0.57;;;15.20;99.90;;;13.85;100.00;100483.16;4925678;28;20061;-83
2021/09/18 00:28:59;;;;;;;1.52;0.65;;;;;;;13.90;100.00;100489.81;4888045;28;20022;-82
2021/09/18 00:31:28;;;;;;;2.35;0.68;;;15.20;99.90;;;13.86;100.00;100504.19;4908782;28;20482;-82
2021/09/18 00:33:58;;;;;;;5.72;0.70;;;;;;;13.90;100.00;100507.50;4928976;28;20038;-81
2021/09/18 00:36:24;;;;;;;3.80;0.60;;;13.90;99.90;;;13.86;100.00;100500.72;4936881;28;20622;-81
2021/09/18 00:38:50;;;;;;;5.80;1.10;;;15.20;99.90;;;13.81;100.00;100502.81;4898973;28;20046;-81
2021/09/18 00:41:25;;;;;;;1.83;0.70;;;15.20;99.90;;;13.79;100.00;100497.63;4950024;28;20042;-81
2021/09/18 00:43:55;;;;;;;3.03;0.60;;;15.20;99.90;;;13.81;100.00;100502.81;4923043;28;20053;-81
2021/09/18 00:46:30;;;;;;;0.52;0.43;;;15.10;99.90;;;13.78;100.00;100503.88;4950515;28;20041;-81
2021/09/18 00:48:57;;;;;;;0.75;0.50;;;;;;;13.71;100.00;100506.06;4935529;28;20033;-81
2021/09/18 00:51:29;;;;;;;2.35;0.65;;;15.10;99.90;;;13.73;100.00;100522.66;4947353;28;20038;-80
2021/09/18 00:53:55;;;;;;;0.60;0.50;;;15.10;99.90;;;13.72;100.00;100514.84;4914817;28;20034;-81
2021/09/18 00:56:22;;;;;;;1.65;0.60;;;15.00;99.90;;;13.67;100.00;100516.91;4941786;28;20444;-80
2021/09/18 00:58:48;;;;;;;1.73;0.40;;;15.00;99.90;;;13.69;100.00;100525.59;4953999;28;20030;-80
2021/09/18 01:01:14;;;;;;;0.80;0.70;;;15.10;99.90;;;13.77;100.00;100555.06;4884385;28;20364;-80
2021/09/18 01:03:44;;;;;;;3.88;0.90;;;15.10;99.90;;;13.74;100.00;100550.00;4941317;28;20128;-80
2021/09/18 01:06:12;;;;;;;4.20;0.95;;;;;;;13.77;100.00;100547.13;4945376;28;20062;-81
2021/09/18 01:08:40;;;;;;;4.05;0.45;;;15.10;99.90;;;13.76;100.00;100548.09;4994000;28;20113;-80
2021/09/18 01:11:08;;;;;;;4.95;0.77;;;15.10;99.90;;;13.81;100.00;100543.34;4955291;28;20038;-80
2021/09/18 01:13:35;;;;;;;1.33;0.57;;;15.10;99.90;;;13.73;100.00;100521.81;4929929;28;20042;-80
2021/09/18 01:16:04;;;;;;;4.60;0.60;;;15.10;99.90;;;13.72;100.00;100517.47;4951641;28;20026;-80
2021/09/18 01:18:30;;;;;;;5.05;0.88;;;15.00;99.90;;;13.71;100.00;100492.81;4894813;28;20044;-80
2021/09/18 01:20:56;;;;;;;4.97;0.98;;;15.00;99.90;;;13.61;100.00;100478.47;4918589;28;20022;-80
2021/09/18 01:23:23;;;;;;;1.67;0.55;;;14.90;99.90;;;13.61;100.00;100462.59;4942356;28;20037;-80
2021/09/18 01:25:50;;;;;;;0.73;0.50;;;15.00;99.90;;;13.60;100.00;100452.09;4932334;28;20105;-79
2021/09/18 01:28:19;;;;;;;1.10;0.40;;;14.90;99.90;;;13.57;100.00;100447.88;4960447;28;20049;-81
2021/09/18 01:30:45;;;;;;;5.90;0.50;;;14.90;99.90;;;13.57;100.00;100447.88;4948306;28;20026;-80
2021/09/18 01:33:12;;;;;;;0.40;0.40;;;14.90;99.90;;;13.56;100.00;100424.97;4958036;28;20421;-80
2021/09/18 01:35:39;;;;;;;1.92;0.50;;;15.00;99.90;;;13.67;100.00;100445.47;4962245;28;20034;-80
2021/09/18 01:38:06;;;;;;;2.17;0.50;;;15.00;99.90;;;13.60;100.00;100426.50;4896934;28;20041;-80
2021/09/18 01:40:46;;;;;;;1.60;0.60;;;14.90;99.90;;;13.64;100.00;100433.28;4874742;28;21198;-80
2021/09/18 01:43:18;;;;;;;1.77;0.32;;;15.00;99.90;;;13.69;100.00;100435.63;4882720;28;20381;-81
2021/09/18 01:45:44;;;;;;;1.27;0.40;;;15.00;99.90;;;13.64;100.00;100422.69;4891125;28;20068;-80
2021/09/18 01:48:15;;;;;;;2.88;0.50;;;15.00;99.90;;;13.65;100.00;100427.06;4973811;28;20499;-80
2021/09/18 01:50:51;;;;;;;2.63;0.40;;;14.90;99.90;;;13.58;100.00;100417.81;4973193;28;20037;-80
2021/09/18 01:53:21;;;;;;;1.95;0.50;;;14.90;99.90;;;13.58;100.00;100420.44;4982386;28;20034;-80
2021/09/18 01:55:49;;;;;;;2.70;0.60;;;14.90;99.90;;;13.48;100.00;100400.84;4936560;28;20033;-80
2021/09/18 01:58:15;;;;;;;4.10;0.40;;;14.80;99.90;;;13.48;100.00;100411.44;4973879;28;20418;-80
2021/09/18 02:00:49;;;;;;;2.33;0.77;;;14.90;99.90;;;13.50;100.00;100418.31;4934372;28;20059;-80
2021/09/18 02:03:15;;;;;;;7.53;0.50;;;14.90;99.90;;;13.55;100.00;100418.00;4949751;28;20115;-80
2021/09/18 02:05:41;;;;;;;1.70;0.57;;;15.00;99.90;;;13.63;100.00;100422.78;4905680;28;20034;-80
2021/09/18 02:08:07;;;;;;;2.85;0.45;;;14.90;99.90;;;13.64;100.00;100433.28;4932109;28;20046;-79
2021/09/18 02:10:34;;;;;;;2.97;0.65;;;15.00;99.90;;;13.60;100.00;100430.94;4928111;28;20022;-79
2021/09/18 02:13:03;;;;;;;1.08;0.40;;;15.00;99.90;;;13.60;100.00;100429.13;4938792;28;20018;-79
2021/09/18 02:15:30;;;;;;;8.05;0.50;;;15.00;99.90;;;13.62;100.00;100434.34;4963066;28;20034;-80
2021/09/18 02:17:56;;;;;;;2.05;0.52;;;15.00;99.90;;;13.67;100.00;100435.75;4923826;28;20030;-80
2021/09/18 02:20:30;;;;;;;2.95;0.50;;;15.00;99.90;;;13.61;100.00;100433.50;4914264;28;20026;-80
2021/09/18 02:22:57;;;;;;;0.80;0.30;;;14.90;99.90;;;13.59;100.00;100419.53;4927310;28;20118;-80
2021/09/18 02:25:27;;;;;;;0.43;0.30;;;14.90;99.90;;;13.53;100.00;100410.16;4966579;28;20034;-80
2021/09/18 02:27:54;;;;;;;0.88;0.30;;;14.80;99.90;;;13.50;100.00;100417.47;4939785;28;20041;-80
2021/09/18 02:30:27;;;;;;;2.40;0.32;;;14.80;99.90;;;13.53;100.00;100418.09;4969294;28;20041;-80
2021/09/18 02:32:55;;;;;;;2.08;0.43;;;14.80;99.90;;;13.44;100.00;100410.75;4924277;28;20092;-80
2021/09/18 02:35:27;;;;;;;0.77;0.20;;;14.80;99.90;;;13.49;100.00;100415.75;4938656;28;20116;-79
2021/09/18 02:37:59;;;;;;;0.35;0.20;;;14.70;99.90;;;13.40;100.00;100398.69;4969770;28;20026;-79
2021/09/18 02:40:27;;;;;;;0.70;0.20;;;14.70;99.90;;;13.36;100.00;100404.25;4950586;28;20072;-80
2021/09/18 02:43:00;;;;;;;0.95;0.30;;;14.70;99.90;;;13.42;100.00;100406.53;4929286;28;20034;-80
2021/09/18 02:45:28;;;;;;;2.55;0.20;;;14.70;99.90;;;13.29;100.00;100407.28;4920856;28;20124;-80
2021/09/18 02:47:57;;;;;;;2.95;0.25;;;14.70;99.90;;;13.36;100.00;100434.19;4931351;28;20038;-80
2021/09/18 02:50:26;;;;;;;0.20;0.20;;;14.70;99.90;;;13.28;100.00;100415.28;4934297;28;20076;-80
2021/09/18 02:52:52;;;;;;;1.00;0.30;;;14.60;99.90;;;13.24;100.00;100430.50;4952868;28;20022;-80
2021/09/18 02:55:18;;;;;;;0.25;0.20;;;14.60;99.90;;;13.24;100.00;100433.16;4960327;28;20029;-80
2021/09/18 02:57:45;;;;;;;0.63;0.20;;;14.60;99.90;;;13.19;100.00;100440.50;4955469;28;20034;-80
2021/09/18 03:00:13;;;;;;;2.80;0.50;;;14.60;99.90;;;13.11;100.00;100440.16;4933271;28;20026;-80
2021/09/18 03:02:42;;;;;;;0.88;0.20;;;14.60;99.90;;;13.17;100.00;100460.03;4947653;28;20053;-80
2021/09/18 03:05:09;;;;;;;1.38;0.40;;;14.60;99.90;;;13.24;100.00;100470.16;4970559;28;20034;-79
2021/09/18 03:07:36;;;;;;;1.70;0.32;;;14.70;99.90;;;13.32;100.00;100451.19;4983766;28;20049;-79
2021/09/18 03:10:07;;;;;;;0.28;0.25;;;;;;;13.28;100.00;100453.19;4924740;28;20054;-79
2021/09/18 03:12:33;;;;;;;1.75;0.43;;;14.70;99.90;;;13.30;100.00;100471.59;4932562;28;20114;-79
2021/09/18 03:15:00;;;;;;;3.85;0.55;;;;;;;13.28;100.00;100458.50;4964382;28;20041;-79
2021/09/18 03:17:26;;;;;;;3.67;0.40;;;14.60;99.90;;;13.37;100.00;100472.06;4976996;28;20049;-80
2021/09/18 03:19:53;;;;;;;2.25;0.40;;;14.70;99.90;;;13.33;100.00;100460.84;4937859;28;20497;-79
2021/09/18 03:22:21;;;;;;;3.65;0.35;;;;;;;13.40;100.00;100482.47;4876080;28;20029;-79
2021/09/18 03:24:56;;;;;;;4.40;0.40;;;14.70;99.90;;;13.44;100.00;100462.81;4937178;28;20034;-80
2021/09/18 03:27:21;;;;;;;2.38;0.60;;;14.80;99.90;;;13.40;100.00;100456.00;4938434;28;20079;-80
2021/09/18 03:29:56;;;;;;;2.90;0.30;;;;;;;13.38;100.00;100455.25;4880791;28;20043;-81
2021/09/18 03:32:23;;;;;;;0.85;0.32;;;14.70;99.90;;;13.36;100.00;100465.09;4970983;28;20519;-80
2021/09/18 03:34:49;;;;;;;2.65;0.30;;;14.70;99.90;;;13.30;100.00;100469.81;4912924;28;20534;-81
2021/09/18 03:37:15;;;;;;;3.88;0.40;;;14.70;99.90;;;13.27;100.00;100459.38;4954340;28;20044;-80
2021/09/18 03:39:48;;;;;;;2.40;0.55;;;14.60;99.90;;;13.25;100.00;100466.56;4919280;28;20038;-81
2021/09/18 03:42:15;;;;;;;2.15;0.35;;;14.60;99.90;;;13.26;100.00;100462.97;4942792;28;20125;-80
2021/09/18 03:44:41;;;;;;;3.67;0.63;;;14.60;99.90;;;13.23;100.00;100444.66;4924172;28;20109;-81
2021/09/18 03:47:10;;;;;;;0.38;0.20;;;14.50;99.90;;;13.18;100.00;100438.81;4941343;28;20113;-80
2021/09/18 03:49:36;;;;;;;1.23;0.40;;;14.50;99.90;;;13.28;100.00;100433.78;4960846;28;20529;-80
2021/09/18 03:52:02;;;;;;;0.98;0.30;;;14.60;99.90;;;13.17;100.00;100415.94;4952799;28;20038;-80
2021/09/18 03:54:28;;;;;;;1.02;0.30;;;14.50;99.90;;;13.16;100.00;100414.25;4930925;28;20034;-80
2021/09/18 03:56:54;;;;;;;1.83;0.40;;;14.50;99.90;;;13.18;100.00;100412.38;4913788;28;20405;-80
2021/09/18 03:59:21;;;;;;;2.05;0.20;;;14.50;99.90;;;13.06;100.00;100407.84;4965242;28;20030;-80
2021/09/18 04:01:56;;;;;;;3.65;0.50;;;;;;;13.14;100.00;100424.09;4919295;28;20041;-81
2021/09/18 04:04:22;;;;;;;1.67;0.30;;;14.50;99.90;;;13.13;100.00;100419.72;4953492;28;20022;-80
2021/09/18 04:06:49;;;;;;;6.10;0.45;;;14.50;99.90;;;13.10;100.00;100425.22;4944328;28;20035;-80
2021/09/18 04:09:15;;;;;;;5.18;0.40;;;14.50;99.90;;;13.09;100.00;100437.59;4896866;28;20025;-79
2021/09/18 04:11:47;;;;;;;1.27;0.50;;;14.50;99.90;;;13.14;100.00;100434.66;4895098;28;20033;-80
2021/09/18 04:14:12;;;;;;;1.73;0.20;;;14.50;99.90;;;13.09;100.00;100424.38;4924057;28;20030;-79
2021/09/18 04:16:39;;;;;;;2.13;0.20;;;14.50;99.90;;;13.11;100.00;100430.41;4914601;28;20030;-79
2021/09/18 04:19:05;;;;;;;1.75;0.50;;;14.50;99.90;;;13.07;100.00;100428.06;4922304;28;20038;-79
2021/09/18 04:21:31;;;;;;;4.88;0.35;;;14.40;99.90;;;13.03;100.00;100434.47;4963684;28;20371;-80
2021/09/18 04:24:02;;;;;;;1.95;0.25;;;14.40;99.90;;;12.99;100.00;100427.69;4942543;28;20042;-80
2021/09/18 04:26:32;;;;;;;4.03;0.40;;;14.40;99.90;;;13.00;100.00;100430.22;4946884;28;20121;-79
2021/09/18 04:29:00;;;;;;;4.72;0.40;;;14.40;99.90;;;13.09;100.00;100436.75;4916488;28;20022;-79
2021/09/18 04:31:26;;;;;;;13.25;0.45;;;14.40;99.90;;;12.99;100.00;100438.25;4928388;28;20022;-79
2021/09/18 04:33:52;;;;;;;1.25;0.20;;;14.40;99.90;;;12.96;100.00;100430.47;4957499;28;20030;-79
2021/09/18 04:36:25;;;;;;;3.25;0.40;;;14.30;99.90;;;12.92;100.00;100440.41;4967084;28;20046;-80
2021/09/18 04:38:51;;;;;;;3.53;0.50;;;14.30;99.90;;;12.98;100.00;100445.34;4961122;28;20022;-79
2021/09/18 04:41:17;;;;;;;0.73;0.20;;;14.40;99.90;;;13.11;100.00;100456.00;4947475;28;20828;-79
2021/09/18 04:43:49;;;;;;;1.52;0.50;;;14.40;99.90;;;13.03;100.00;100452.97;4951862;28;20017;-79
2021/09/18 04:46:15;;;;;;;1.65;0.30;;;14.40;99.90;;;13.10;100.00;100454.28;4936425;28;20113;-79
2021/09/18 04:48:41;;;;;;;0.98;0.35;;;14.40;99.90;;;13.00;100.00;100453.16;4936718;28;20061;-80
2021/09/18 04:51:07;;;;;;;2.03;0.45;;;14.40;99.90;;;13.03;100.00;100469.69;4941907;28;20064;-79
2021/09/18 04:53:33;;;;;;;4.35;0.50;;;14.40;99.90;;;13.06;100.00;100473.91;4931613;28;20019;-79
2021/09/18 04:55:59;;;;;;;2.05;0.38;;;14.50;99.90;;;13.04;100.00;100460.78;4929731;28;20026;-79
2021/09/18 04:58:25;;;;;;;3.75;0.40;;;14.40;99.90;;;12.96;100.00;100471.00;4952059;28;20147;-79
2021/09/18 05:00:51;;;;;;;1.45;0.32;;;14.40;99.90;;;12.92;100.00;100472.97;4930785;28;20026;-79
2021/09/18 05:03:17;;;;;;;1.17;0.32;;;14.40;99.90;;;12.96;100.00;100470.13;4931218;28;20023;-79
2021/09/18 05:05:43;;;;;;;2.95;0.40;;;14.20;99.90;;;12.94;100.00;100475.53;4946640;28;20140;-79
2021/09/18 05:08:10;;;;;;;2.55;0.20;;;14.30;99.90;;;12.93;100.00;100482.59;4930170;28;20042;-79
2021/09/18 05:10:36;;;;;;;3.63;0.38;;;14.30;99.90;;;12.88;100.00;100491.75;4939031;28;21063;-80
2021/09/18 05:13:02;;;;;;;1.42;0.50;;;14.30;99.90;;;12.96;100.00;100485.97;4936011;28;20033;-79
2021/09/18 05:15:29;;;;;;;1.25;0.20;;;14.30;99.90;;;13.01;100.00;100481.28;4962703;28;20114;-79
2021/09/18 05:17:56;;;;;;;5.40;0.90;;;14.30;99.90;;;12.97;100.00;100474.50;4987074;28;20125;-80
2021/09/18 05:20:22;;;;;;;1.08;0.40;;;14.40;99.90;;;13.07;100.00;100483.56;4940452;28;20044;-80
2021/09/18 05:22:48;;;;;;;0.93;0.35;;;14.40;99.90;;;13.06;100.00;100484.50;4952851;28;20030;-79
2021/09/18 05:25:14;;;;;;;2.78;0.63;;;14.50;99.90;;;13.02;100.00;100482.97;4950004;28;20054;-79
2021/09/18 05:27:40;;;;;;;2.70;0.43;;;14.40;99.90;;;13.00;100.00;100496.31;4929193;28;20069;-79
2021/09/18 05:30:08;;;;;;;3.33;0.60;;;14.30;99.90;;;12.97;100.00;100490.34;4949973;28;20034;-79
2021/09/18 05:32:35;;;;;;;2.58;0.57;;;14.30;99.90;;;12.99;100.00;100501.66;4960269;28;20027;-79
2021/09/18 05:35:04;;;;;;;6.47;0.88;;;14.30;99.90;;;12.95;100.00;100494.88;4937572;28;20096;-79
2021/09/18 05:37:30;;;;;;;1.55;0.55;;;14.30;99.90;;;12.98;100.00;100503.47;4972277;28;20452;-79
2021/09/18 05:39:57;;;;;;;2.42;0.63;;;;;;;13.02;100.00;100485.63;4947914;28;20458;-79
2021/09/18 05:42:23;;;;;;;2.75;0.65;;;14.30;99.90;;;13.00;100.00;100485.72;4974433;28;20061;-79
2021/09/18 05:44:49;;;;;;;5.80;0.93;;;14.40;99.90;;;13.09;100.00;100498.38;4983070;28;20662;-80
2021/09/18 05:47:15;;;;;;;4.55;0.77;;;14.40;99.90;;;13.03;100.00;100509.31;4955926;28;20046;-80
2021/09/18 05:49:41;;;;;;;6.70;0.82;;;14.30;99.90;;;12.99;100.00;100517.53;4955128;28;20026;-79
2021/09/18 05:52:08;;;;;;;10.57;0.80;;;14.30;99.90;;;12.98;100.00;100519.34;4916689;28;20077;-79
2021/09/18 05:54:34;;;;;;;3.45;0.68;;;14.30;99.90;;;13.01;100.00;100505.91;4960605;28;20027;-78
2021/09/18 05:57:00;;;;;;;3.53;0.90;;;14.40;99.90;;;13.02;100.00;100504.97;4965642;28;20030;-79
2021/09/18 05:59:26;;;;;;;4.28;0.88;;;14.30;99.90;;;13.02;100.00;100506.75;4913435;28;20081;-79
2021/09/18 06:01:54;;;;;;;4.60;1.00;;;14.40;99.90;;;13.17;100.00;100503.19;4953426;28;20397;-80
2021/09/18 06:04:20;;;;;;;5.97;0.90;;;14.50;99.90;;;13.17;100.00;100505.81;4899938;28;20042;-80
2021/09/18 06:06:46;;;;;;;3.50;1.00;;;14.50;99.90;;;13.17;100.00;100507.63;4939328;28;20437;-78
2021/09/18 06:09:12;;;;;;;1.70;0.90;;;14.50;99.90;;;13.09;100.00;100502.81;4948485;28;20033;-80
2021/09/18 06:11:39;;;;;;;4.03;0.95;;;14.50;99.90;;;13.10;100.00;100501.88;4966290;28;20023;-79
2021/09/18 06:14:04;;;;;;;4.40;1.10;;;14.40;99.90;;;13.08;100.00;100506.41;4976536;28;20409;-79
2021/09/18 06:16:35;;;;;;;4.47;1.08;;;14.30;99.90;;;13.02;100.00;100510.25;4966557;28;20027;-78
2021/09/18 06:19:01;;;;;;;2.90;0.88;;;14.40;99.90;;;13.00;100.00;100513.94;4940724;28;20475;-79
2021/09/18 06:21:27;;;;;;;3.15;0.85;;;14.30;99.90;;;12.97;100.00;100524.69;4963236;28;20031;-79
2021/09/18 06:23:53;;;;;;;2.15;0.95;;;14.40;99.90;;;13.06;100.00;100521.50;4944161;28;20074;-80
2021/09/18 06:26:19;;;;;;;2.67;1.00;;;14.40;99.90;;;12.95;100.00;100516.00;4895971;28;20038;-79
2021/09/18 06:28:45;;;;;;;3.50;1.00;;;14.40;99.90;;;13.02;100.00;100517.34;4940174;28;20038;-78
2021/09/18 06:31:11;;;;;;;3.45;1.20;;;14.40;99.90;;;12.93;100.00;100518.75;4904356;28;20038;-79
2021/09/18 06:33:42;;;;;;;5.07;1.13;;;14.40;99.90;;;12.91;100.00;100512.69;4913652;28;20418;-79
2021/09/18 06:36:08;;;;;;;5.80;1.23;;;14.30;99.90;;;12.93;100.00;100514.28;4957756;28;20029;-79
2021/09/18 06:38:34;;;;;;;5.43;1.35;;;14.40;99.90;;;13.01;100.00;100513.00;4942342;28;20027;-80
2021/09/18 06:41:00;;;;;;;4.50;1.10;;;14.40;99.90;;;13.00;100.00;100516.56;4920888;28;20151;-78
2021/09/18 06:43:32;;;;;;;8.23;0.80;;;14.40;99.90;;;12.91;100.00;100513.56;4974961;28;20018;-79
2021/09/18 06:45:58;;;;;;;2.78;1.05;;;14.30;99.90;;;12.97;100.00;100507.03;4948505;28;20029;-81
2021/09/18 06:48:24;;;;;;;6.90;1.60;;;14.30;99.90;;;12.93;100.00;100516.94;4917621;28;20096;-80
2021/09/18 06:50:50;;;;;;;6.00;1.50;;;14.30;99.90;;;13.08;100.00;100525.75;4942753;28;20494;-80
2021/09/18 06:53:17;;;;;;;1.98;0.93;;;14.40;99.90;;;13.04;100.00;100518.09;4917477;28;20049;-80
2021/09/18 06:55:43;;;;;;;4.63;0.95;;;14.40;99.90;;;12.99;100.00;100528.09;4988564;28;20037;-80
2021/09/18 06:58:18;;;;;;;3.95;1.13;;;14.40;99.90;;;12.97;100.00;100528.19;4936046;28;20038;-80
2021/09/18 07:00:44;;;;;;;3.13;1.20;;;14.40;99.90;;;13.01;100.00;100535.00;4896340;28;20030;-81
2021/09/18 07:03:10;;;;;;;2.75;1.17;;;14.40;99.90;;;13.02;100.00;100535.84;4894834;28;20458;-81
2021/09/18 07:05:43;;;;;;;3.03;1.30;;;14.40;99.90;;;12.97;100.00;100537.91;4912441;28;20540;-81
2021/09/18 07:08:09;;;;;;;2.50;1.02;;;14.40;99.90;;;13.04;100.00;100555.09;4921019;28;20046;-80
2021/09/18 07:10:36;;;;;;;5.18;1.10;;;;;;;13.06;100.00;100554.06;4897356;28;20031;-81
2021/09/18 07:13:02;;;;;;;4.50;1.27;;;14.40;99.90;;;13.09;100.00;100569.75;4921350;28;20072;-81
2021/09/18 07:15:52;;;;;;;3.88;1.08;;;14.40;99.90;;;13.04;100.00;100568.31;4907118;28;20101;-81
2021/09/18 07:18:21;;;;;;;6.10;1.42;;;14.40;99.90;;;13.07;100.00;100562.88;4876626;28;20068;-81
2021/09/18 07:20:52;;;;;;;3.53;1.00;;;14.40;99.90;;;13.09;100.00;100543.31;4896583;28;20696;-81
2021/09/18 07:23:24;;;;;;;2.90;1.08;;;14.40;99.90;;;13.11;100.00;100543.25;4923355;28;20022;-81
2021/09/18 07:25:50;;;;;;;5.28;1.35;;;14.40;99.90;;;12.99;100.00;100541.31;4920673;28;20046;-81
2021/09/18 07:28:24;;;;;;;4.97;1.60;;;14.40;99.90;;;13.06;100.00;100547.94;4879556;28;20049;-82
2021/09/18 07:30:50;;;;;;;1.73;0.80;;;14.30;99.90;;;13.05;100.00;100547.09;4900284;28;20041;-81
2021/09/18 07:33:16;;;;;;;5.47;1.10;;;14.40;99.90;;;13.01;100.00;100550.00;4943856;28;20035;-81
2021/09/18 07:35:43;;;;;;;6.65;1.25;;;14.40;99.90;;;13.00;100.00;100540.34;4949397;28;20116;-81
2021/09/18 07:38:18;;;;;;;7.20;1.13;;;14.40;99.90;;;12.96;100.00;100552.94;4888242;28;20026;-82
2021/09/18 07:40:44;;;;;;;3.25;1.27;;;14.40;99.90;;;12.99;100.00;100550.09;4871430;28;20057;-82
2021/09/18 07:43:10;;;;;;;6.00;1.23;;;14.30;99.90;;;12.92;100.00;100552.25;4914001;28;20148;-81
2021/09/18 07:45:40;;;;;;;4.75;1.15;;;14.30;99.90;;;12.92;100.00;100561.97;4903780;28;20191;-82
2021/09/18 07:48:07;;;;;;;5.60;1.60;;;14.30;99.90;;;12.92;100.00;100568.09;4937279;28;20058;-82
2021/09/18 07:50:33;;;;;;;3.92;1.35;;;14.30;99.90;;;12.90;100.00;100569.97;4852443;28;20460;-81
2021/09/18 07:52:59;;;;;;;6.28;1.20;;;14.30;99.90;;;12.97;100.00;100554.63;4937468;28;20023;-81
2021/09/18 07:55:26;;;;;;;6.35;1.60;;;14.30;99.90;;;12.97;100.00;100553.78;4883874;28;20047;-81
2021/09/18 07:57:58;;;;;;;2.80;1.27;;;14.30;99.90;;;13.03;100.00;100553.41;4911026;28;20071;-81
2021/09/18 08:00:27;;;;;;;3.15;1.20;;;14.40;99.90;;;13.00;100.00;100546.53;4902318;28;20018;-81
2021/09/18 08:02:55;;;;;;;3.47;1.33;;;14.30;99.90;;;13.03;100.00;100537.56;4886110;28;20046;-82
2021/09/18 08:05:30;;;;;;;6.03;1.27;;;14.40;99.90;;;13.14;100.00;100546.53;4906782;28;20026;-82
2021/09/18 08:07:56;;;;;;;4.50;0.90;;;14.40;99.90;;;13.15;100.00;100552.66;4875509;28;20772;-82
2021/09/18 08:10:22;;;;;;;3.05;1.27;;;14.40;99.90;;;13.13;100.00;100538.69;4903193;28;20117;-82
2021/09/18 08:12:59;;;;;;;2.63;0.98;;;14.50;99.90;;;13.20;100.00;100558.53;4916387;28;23215;-82
2021/09/18 08:15:25;;;;;;;;;;;14.50;99.90;;;13.20;100.00;100558.53;4921640;28;20029;-83
2021/09/18 08:17:51;;;;;;;3.90;1.07;;;;;;;13.25;100.00;100582.91;4906463;28;19926;-81
2021/09/18 08:20:21;;;;;;;3.80;1.30;;;14.60;99.90;;;13.29;100.00;100573.88;4921663;28;20033;-82
2021/09/18 08:22:49;;;;;;;6.35;1.13;;;14.60;99.90;;;13.24;100.00;100575.03;4923807;28;20053;-80
2021/09/18 08:25:15;;;;;;;3.25;0.90;;;14.60;99.90;;;13.39;100.00;100589.16;4942994;28;20022;-80
2021/09/18 08:27:42;;;;;;;2.40;1.00;;;14.70;99.90;;;13.33;100.00;100572.75;4916656;28;20051;-80
2021/09/18 08:30:12;;;;;;;2.95;1.10;;;14.70;99.90;;;13.44;100.00;100545.66;4900048;28;20042;-80
2021/09/18 08:32:41;;;;;;;2.58;1.13;;;14.70;99.90;;;13.39;100.00;100612.97;4913279;28;20057;-81
2021/09/18 08:35:09;;;;;;;2.22;1.17;;;14.70;99.90;;;13.36;100.00;100624.59;4903562;28;20129;-81
2021/09/18 08:37:36;;;;;;;4.55;1.65;;;14.70;99.90;;;13.43;100.00;100623.28;4913918;28;20105;-80
2021/09/18 08:40:09;;;;;;;4.40;1.35;;;14.70;99.90;;;13.39;100.00;100620.91;4939927;28;20042;-80
2021/09/18 08:42:42;;;;;;;8.60;1.38;;;14.70;99.90;;;13.36;100.00;100619.31;4967272;28;20371;-79
2021/09/18 08:45:12;;;;;;;4.20;1.17;;;14.80;99.90;;;13.41;100.00;100621.66;4951287;28;20034;-79
2021/09/18 08:47:42;;;;;;;11.75;1.33;;;14.70;99.90;;;13.34;100.00;100626.47;4981966;28;20046;-78
2021/09/18 08:50:15;;;;;;;4.72;1.55;;;14.70;99.90;;;13.37;100.00;100636.00;4967577;28;20030;-79
2021/09/18 08:52:42;;;;;;;4.50;1.25;;;14.70;99.90;;;13.33;100.00;100630.09;4998612;28;20176;-78
2021/09/18 08:55:09;;;;;;;4.43;1.10;;;14.70;99.90;;;13.32;100.00;100629.19;4959164;28;20714;-77
2021/09/18 08:57:35;;;;;;;6.38;1.48;;;14.70;99.90;;;13.31;100.00;100632.81;4960762;28;20027;-76
2021/09/18 09:00:01;;;;;;;2.72;1.40;;;14.70;99.90;;;13.24;100.00;100617.34;4974806;28;20113;-75
2021/09/18 09:02:39;;;;;;;13.25;2.08;;;14.60;99.90;;;13.19;100.00;100612.34;4929660;28;20490;-75
2021/09/18 09:05:09;;;;;;;3.35;1.42;;;14.60;99.90;;;13.23;100.00;100616.50;4936152;28;20069;-77
2021/09/18 09:07:36;;;;;;;8.60;1.80;;;14.60;99.90;;;13.24;100.00;100631.44;4926064;28;20037;-77
2021/09/18 09:10:12;;;;;;;8.85;2.22;;;14.60;99.90;;;13.23;100.00;100687.06;4942484;28;20037;-78
2021/09/18 09:12:46;;;;;;;;;;;14.60;99.90;;;13.24;100.00;100679.03;4957359;28;20048;-77
2021/09/18 09:15:46;;;;;;;8.02;2.30;;;14.60;99.90;;;13.29;100.00;100666.41;4946325;28;19953;-76
2021/09/18 09:19:05;;;;;;;7.13;2.10;;;14.60;99.90;;;13.28;100.00;100654.16;4919748;28;20042;-76
2021/09/18 09:21:57;;;;;;;3.83;2.15;;;14.60;99.90;;;13.27;100.00;100670.91;4950624;28;20075;-76
2021/09/18 09:25:13;;;;;;;6.38;2.50;;;14.60;99.90;;;13.29;100.00;100655.84;4908895;28;20633;-77
2021/09/18 09:27:42;;;;;;;8.40;2.08;;;14.60;99.90;;;13.31;100.00;100656.59;4944426;28;20103;-77
2021/09/18 09:30:36;;;;;;;16.08;2.58;;;14.70;99.90;;;13.33;100.00;100667.09;4965650;28;20052;-77
2021/09/18 09:33:15;;;;;;;6.95;2.63;;;14.60;99.90;;;13.31;100.00;100663.69;4924649;28;20258;-77
2021/09/18 09:36:27;;;;;;;5.38;2.42;;;14.60;99.90;;;13.23;100.00;100669.38;4935545;28;20046;-77
2021/09/18 09:39:00;;;;;;;7.85;2.55;;;14.50;99.90;;;13.22;100.00;100688.00;4923467;28;20039;-77
2021/09/18 09:42:10;;;;;;;5.15;2.60;;;14.60;99.90;;;13.18;100.00;100686.47;4927435;28;20569;-77
2021/09/18 09:44:41;;;;;;;4.80;2.78;;;14.60;99.90;;;13.30;100.00;100683.13;4940033;28;20042;-77
2021/09/18 09:47:27;;;;;;;5.75;2.92;;;14.60;99.90;;;13.27;100.00;100673.56;4906544;28;20086;-76
2021/09/18 09:49:59;;;;;;;4.90;2.45;;;14.60;99.90;;;13.25;100.00;100672.78;4951079;28;20147;-76
2021/09/18 09:52:50;;;;;;;5.65;2.40;;;14.60;99.90;;;13.37;100.00;100673.91;4906774;28;20044;-77
2021/09/18 09:55:46;;;;;;;13.02;3.33;;;14.60;99.90;;;13.37;100.00;100673.91;4917668;28;20390;-76
2021/09/18 09:59:07;;;;;;;6.15;2.90;;;14.70;99.90;;;13.46;100.00;100683.94;4947594;28;20044;-76
2021/09/18 10:01:43;;;;;;;11.07;2.90;;;14.80;99.90;;;13.49;100.00;100673.16;4945970;28;20038;-76
2021/09/18 10:04:53;;;;;;;6.18;2.80;;;14.80;99.90;;;13.45;100.00;100668.16;4925158;28;20463;-76
2021/09/18 10:07:33;;;;;;;8.55;2.78;;;14.70;99.90;;;13.40;100.00;100657.00;4934157;28;20046;-76
2021/09/18 10:10:28;;;;;;;3.97;2.35;;;14.70;99.90;;;13.33;98.74;100652.06;4933639;28;20146;-76
2021/09/18 10:13:08;;;;;;;7.32;3.00;;;14.70;99.90;;;13.31;100.00;100667.19;4948267;28;20034;-75
2021/09/18 10:15:35;;;;;;;12.70;2.95;;;14.60;99.90;;;13.39;100.00;100676.44;4941740;28;20096;-76
2021/09/18 10:18:35;;;;;;;7.63;3.40;;;14.70;99.90;;;13.40;100.00;100665.78;4916158;28;20045;-76
2021/09/18 10:25:33;;;;;;;5.53;2.80;;;14.80;99.90;;;13.53;100.00;100663.25;4933891;28;20481;-77
2021/09/18 10:29:01;;;;;;;7.95;3.17;;;14.90;99.90;;;13.51;100.00;100666.00;4951447;28;20374;-75